Time;durP1;ratioP1;P1;durP2;ratioP2;P2;SDS_P1;SDS_P2;PMS_P1;PMS_P2;Temp;Humidity;BMP_temperature;BMP_pressure;BME280_temperature;BME280_humidity;BME280_pressure;Samples;Min_cycle;Max_cycle;Signal;HPM_P1;HPM_P2
2022/04/29 00:00:49;;;;;;;7.65;3.03;;;13.40;76.60;;;;;;4968477;28;20037;-86
2022/04/29 00:07:02;;;;;;;;;;;;;;;;;;;;;
2022/04/29 00:10:16;;;;;;;;;;;;;;;;;;;;;
2022/04/29 00:13:23;;;;;;;;;;;;;;;;;;;;;
2022/04/29 00:15:49;;;;;;;7.15;2.88;;;13.20;77.10;;;;;;4961463;28;20027;-87
2022/04/29 00:18:33;;;;;;;10.00;4.10;;;13.10;77.30;;;;;;4978111;28;20495;-86
2022/04/29 00:21:29;;;;;;;;;;;;;;;;;;;;;
2022/04/29 00:28:10;;;;;;;;;;;;;;;;;;;;;
2022/04/29 00:34:22;;;;;;;;;;;;;;;;;;;;;
2022/04/29 00:37:17;;;;;;;8.98;3.83;;;12.90;78.40;;;;;;4977377;28;20034;-86
2022/04/29 00:40:13;;;;;;;9.57;3.58;;;12.90;78.40;;;;;;4961395;28;20026;-86
2022/04/29 00:43:01;;;;;;;9.75;4.25;;;12.80;78.50;;;;;;4990019;28;20030;-86
2022/04/29 00:52:11;;;;;;;;;;;;;;;;;;;;;
2022/04/29 00:58:18;;;;;;;11.00;4.05;;;12.60;79.30;;;;;;4958771;28;20035;-87
2022/04/29 01:01:06;;;;;;;;;;;;;;;;;;;;;
2022/04/29 01:03:43;;;;;;;10.88;4.28;;;12.50;79.50;;;;;;4978173;28;20050;-87
2022/04/29 01:06:34;;;;;;;9.27;4.60;;;12.50;79.60;;;;;;4960171;28;20066;-86
2022/04/29 01:12:31;;;;;;;;;;;12.50;80.10;;;;;;4967221;28;20479;-86
2022/04/29 01:15:37;;;;;;;9.75;4.43;;;12.40;80.60;;;;;;4956827;28;19906;-86
2022/04/29 01:18:10;;;;;;;9.90;4.30;;;12.40;80.40;;;;;;4963413;28;20019;-86
2022/04/29 01:20:49;;;;;;;;;;;;;;;;;;;;;
2022/04/29 01:23:33;;;;;;;;;;;;;;;;;;;;;
2022/04/29 01:26:17;;;;;;;9.75;4.53;;;12.30;80.80;;;;;;4962148;28;20031;-86
2022/04/29 01:29:16;;;;;;;;;;;;;;;;;;;;;
2022/04/29 01:35:10;;;;;;;10.13;4.78;;;12.20;81.20;;;;;;4965323;28;20097;-86
2022/04/29 01:38:08;;;;;;;8.90;5.10;;;12.10;81.30;;;;;;4959736;28;20031;-91
2022/04/29 01:41:07;;;;;;;16.55;5.53;;;12.10;81.60;;;;;;4976228;28;20101;-86
2022/04/29 01:46:40;;;;;;;11.65;5.85;;;12.10;81.80;;;;;;4965919;28;20094;-86
2022/04/29 01:49:56;;;;;;;;;;;;;;;;;;;;;
2022/04/29 01:52:40;;;;;;;;;;;;;;;;;;;;;
2022/04/29 01:55:33;;;;;;;11.38;5.95;;;11.90;82.10;;;;;;4975977;28;20034;-86
2022/04/29 01:58:09;;;;;;;12.73;5.50;;;11.90;82.40;;;;;;4959367;28;20026;-85
2022/04/29 02:00:42;;;;;;;10.02;5.82;;;11.90;82.90;;;;;;4952666;28;20054;-86
2022/04/29 02:03:15;;;;;;;12.55;6.47;;;11.80;82.50;;;;;;4978254;28;20506;-85
2022/04/29 02:06:07;;;;;;;10.95;5.65;;;11.80;82.60;;;;;;4978645;28;20470;-85
2022/04/29 02:08:54;;;;;;;9.18;5.75;;;11.80;82.70;;;;;;4974913;28;20042;-86
2022/04/29 02:15:20;;;;;;;11.37;5.67;;;11.70;83.00;;;;;;4935931;29;20174;-87
2022/04/29 02:20:56;;;;;;;12.55;5.65;;;11.70;83.50;;;;;;4961477;28;20108;-87
2022/04/29 02:26:59;;;;;;;;;;;;;;;;;;;;;
2022/04/29 02:36:09;;;;;;;;;;;;;;;;;;;;;
2022/04/29 02:39:06;;;;;;;;;;;;;;;;;;;;;
2022/04/29 02:45:22;;;;;;;11.25;6.88;;;11.40;84.60;;;;;;4967640;28;20038;-87
2022/04/29 02:48:03;;;;;;;;;;;;;;;;;;;;;
2022/04/29 02:50:40;;;;;;;11.95;6.25;;;11.30;85.20;;;;;;4996302;28;20034;-87
2022/04/29 02:53:51;;;;;;;;;;;;;;;;;;;;;
2022/04/29 02:56:40;;;;;;;13.50;6.78;;;11.30;85.60;;;;;;4975885;28;20062;-87
2022/04/29 02:59:15;;;;;;;12.57;6.70;;;11.30;85.80;;;;;;4989910;28;20478;-87
2022/04/29 03:01:52;;;;;;;13.35;6.63;;;11.30;85.80;;;;;;4962694;28;20482;-87
2022/04/29 03:07:40;;;;;;;;;;;;;;;;;;;;;
2022/04/29 03:10:36;;;;;;;;;;;;;;;;;;;;;
2022/04/29 03:13:26;;;;;;;;;;;;;;;;;;;;;
2022/04/29 03:16:51;;;;;;;14.57;7.07;;;11.20;86.60;;;;;;4999002;28;20082;-87
2022/04/29 03:19:47;;;;;;;13.75;7.07;;;11.10;86.80;;;;;;5011554;28;20037;-87
2022/04/29 03:22:45;;;;;;;;;;;;;;;;;;;;;
2022/04/29 03:31:46;;;;;;;;;;;;;;;;;;;;;
2022/04/29 03:34:37;;;;;;;14.57;7.03;;;10.90;87.90;;;;;;4994769;28;20389;-87
2022/04/29 03:40:34;;;;;;;16.17;7.97;;;10.90;88.30;;;;;;4982393;28;20037;-87
2022/04/29 03:43:12;;;;;;;11.70;6.88;;;10.90;88.70;;;;;;4980198;28;20038;-87
2022/04/29 03:45:56;;;;;;;14.85;7.45;;;10.80;88.80;;;;;;4978770;28;20111;-87
2022/04/29 03:52:22;;;;;;;15.15;7.97;;;10.80;89.90;;;;;;4995342;28;20033;-86
2022/04/29 03:55:02;;;;;;;13.98;7.20;;;10.80;89.60;;;;;;4977484;28;20141;-85
2022/04/29 03:58:05;;;;;;;13.68;6.88;;;10.80;89.80;;;;;;4977488;28;20544;-86
2022/04/29 04:00:47;;;;;;;;;;;;;;;;;;;;;
2022/04/29 04:04:03;;;;;;;;;;;;;;;;;;;;;
2022/04/29 04:07:03;;;;;;;;;;;;;;;;;;;;;
2022/04/29 04:10:11;;;;;;;11.98;7.00;;;10.70;90.20;;;;;;4997694;28;20040;-87
2022/04/29 04:17:03;;;;;;;;;;;;;;;;;;;;;
2022/04/29 04:22:35;;;;;;;;;;;;;;;;;;;;;
2022/04/29 04:25:21;;;;;;;13.85;6.38;;;10.50;90.90;;;;;;5004882;28;20096;-86
2022/04/29 04:28:24;;;;;;;14.82;6.32;;;10.50;91.00;;;;;;4983384;28;20018;-86
2022/04/29 04:31:13;;;;;;;;;;;;;;;;;;;;;
2022/04/29 04:37:48;;;;;;;21.55;6.80;;;10.50;91.40;;;;;;4967435;28;20038;-86
2022/04/29 04:44:27;;;;;;;;;;;;;;;;;;;;;
2022/04/29 04:51:03;;;;;;;;;;;;;;;;;;;;;
2022/04/29 04:53:57;;;;;;;13.25;6.50;;;10.40;92.20;;;;;;4947886;28;20100;-87
2022/04/29 05:00:34;;;;;;;;;;;;;;;;;;;;;
2022/04/29 05:06:26;;;;;;;;;;;10.40;92.80;;;;;;4996942;28;20082;-87
2022/04/29 05:09:22;;;;;;;;;;;;;;;;;;;;;
2022/04/29 05:12:24;;;;;;;;;;;;;;;;;;;;;
2022/04/29 05:14:57;;;;;;;11.48;6.18;;;10.30;92.80;;;;;;4994244;28;20061;-86
2022/04/29 05:28:04;;;;;;;;;;;;;;;;;;;;;
2022/04/29 05:33:52;;;;;;;12.52;6.78;;;10.20;93.60;;;;;;4990163;28;20049;-87
2022/04/29 06:07:37;;;;;;;12.65;6.63;;;10.10;95.10;;;;;;4860091;29;20057;-87
2022/04/29 06:27:12;;;;;;;;;;;;;;;;;;;;;
2022/04/29 06:33:26;;;;;;;;;;;;;;;;;;;;;
2022/04/29 06:40:22;;;;;;;15.25;7.55;;;10.20;96.60;;;;;;4789040;29;20135;-86
2022/04/29 06:47:07;;;;;;;13.45;6.80;;;10.20;96.60;;;;;;4817669;29;20046;-86
2022/04/29 07:13:13;;;;;;;;;;;;;;;;;;;;;
2022/04/29 07:19:10;;;;;;;17.30;7.72;;;10.30;97.50;;;;;;4956167;28;20178;-86
2022/04/29 07:25:43;;;;;;;;;;;;;;;;;;;;;
2022/04/29 07:28:09;;;;;;;17.27;6.88;;;10.40;97.80;;;;;;4998591;28;20086;-80
2022/04/29 07:30:52;;;;;;;;;;;;;;;;;;;;;
2022/04/29 07:45:40;;;;;;;13.85;6.93;;;10.60;98.10;;;;;;4998745;28;20244;-87
2022/04/29 07:48:50;;;;;;;13.93;7.10;;;10.60;98.40;;;;;;4981674;28;20046;-87
2022/04/29 07:51:42;;;;;;;10.50;5.97;;;10.60;98.20;;;;;;4993980;28;20034;-87
2022/04/29 08:45:18;;;;;;;;;;;11.60;98.90;;;;;;4882647;29;20040;-86
2022/04/29 09:23:23;;;;;;;8.48;5.13;;;12.40;98.10;;;;;;4951192;28;20131;-88
2022/04/29 10:14:59;;;;;;;;;;;;;;;;;;;;;
2022/04/29 11:16:36;;;;;;;10.15;5.43;;;14.70;94.90;;;;;;4836917;29;20064;-88
2022/04/29 11:57:08;;;;;;;;;;;;;;;;;;;;;
2022/04/29 12:13:08;;;;;;;11.90;5.03;;;15.30;93.20;;;;;;4751571;30;20152;-87
2022/04/29 12:16:36;;;;;;;8.57;5.05;;;15.40;93.10;;;;;;4811398;29;20046;-86
2022/04/29 13:38:22;;;;;;;8.48;4.78;;;17.00;87.20;;;;;;4902027;29;20051;-91
2022/04/29 13:40:48;;;;;;;7.15;4.32;;;17.10;86.60;;;;;;4910511;28;20508;-84
2022/04/29 13:43:14;;;;;;;10.63;5.07;;;17.10;86.00;;;;;;4995920;28;20113;-83
2022/04/29 13:45:41;;;;;;;8.20;4.60;;;17.20;85.50;;;;;;4962455;28;20467;-84
2022/04/29 13:48:08;;;;;;;10.90;5.00;;;17.20;84.80;;;;;;4996842;28;20026;-83
2022/04/29 13:50:34;;;;;;;7.35;4.78;;;17.30;84.50;;;;;;4965421;28;20069;-82
2022/04/29 13:53:09;;;;;;;8.60;4.55;;;17.30;84.20;;;;;;4988634;28;20028;-82
2022/04/29 13:55:50;;;;;;;7.40;4.53;;;17.40;83.60;;;;;;5004716;23;20114;-81
2022/04/29 13:58:21;;;;;;;8.60;4.65;;;17.40;82.80;;;;;;4958709;28;20026;-81
2022/04/29 14:00:49;;;;;;;7.70;4.47;;;17.50;82.50;;;;;;4958646;28;20027;-81
2022/04/29 14:03:17;;;;;;;8.38;4.50;;;17.50;82.10;;;;;;4975674;28;20034;-81
2022/04/29 14:05:43;;;;;;;9.27;4.60;;;17.60;82.00;;;;;;4958298;28;20117;-80
2022/04/29 14:08:08;;;;;;;5.88;4.00;;;17.60;81.50;;;;;;4958822;28;20114;-83
2022/04/29 14:10:34;;;;;;;6.57;4.40;;;17.60;80.70;;;;;;4958928;28;20086;-81
2022/04/29 14:13:01;;;;;;;8.20;4.07;;;17.70;80.50;;;;;;4958211;28;20035;-81
2022/04/29 14:15:27;;;;;;;7.70;4.28;;;17.70;80.20;;;;;;4975032;28;20102;-81
2022/04/29 14:17:53;;;;;;;7.28;5.05;;;17.70;80.30;;;;;;4942143;28;20109;-88
2022/04/29 14:20:19;;;;;;;9.07;4.63;;;17.80;80.20;;;;;;4975776;28;20022;-88
2022/04/29 14:22:47;;;;;;;7.28;4.25;;;17.80;80.00;;;;;;4942126;28;20035;-87
2022/04/29 14:25:14;;;;;;;6.10;4.25;;;17.80;79.80;;;;;;4958281;28;20034;-86
2022/04/29 14:27:41;;;;;;;9.07;4.53;;;17.80;79.60;;;;;;4957956;28;20058;-81
2022/04/29 14:30:09;;;;;;;7.20;4.20;;;17.80;79.30;;;;;;4958023;28;20128;-81
2022/04/29 14:32:37;;;;;;;9.18;4.30;;;17.90;79.10;;;;;;4957721;28;20486;-81
2022/04/29 14:35:05;;;;;;;7.18;3.95;;;17.90;78.60;;;;;;4972012;28;20058;-81
2022/04/29 14:37:31;;;;;;;5.60;3.75;;;17.90;78.40;;;;;;4974620;28;20031;-81
2022/04/29 14:40:01;;;;;;;7.85;4.30;;;18.00;78.70;;;;;;4957182;28;20080;-82
2022/04/29 14:42:28;;;;;;;7.55;3.88;;;18.00;78.40;;;;;;4957345;28;20019;-82
2022/04/29 14:44:55;;;;;;;9.38;4.30;;;18.00;77.90;;;;;;4972093;28;20455;-82
2022/04/29 14:47:20;;;;;;;7.03;3.83;;;18.10;78.00;;;;;;4974594;28;20035;-82
2022/04/29 14:49:47;;;;;;;8.82;4.85;;;18.00;77.40;;;;;;4957548;28;20034;-82
2022/04/29 14:52:13;;;;;;;8.05;4.30;;;18.00;76.80;;;;;;4974345;28;20037;-82
2022/04/29 14:54:42;;;;;;;7.90;4.00;;;18.00;76.70;;;;;;4957097;28;20041;-82
2022/04/29 14:57:08;;;;;;;10.55;4.28;;;18.00;76.60;;;;;;4956885;28;20106;-82
2022/04/29 14:59:35;;;;;;;8.30;4.45;;;18.00;76.50;;;;;;4974380;28;20035;-82
2022/04/29 15:02:01;;;;;;;8.13;3.85;;;18.00;76.80;;;;;;4970738;28;20396;-83
2022/04/29 15:04:27;;;;;;;6.05;3.80;;;18.00;76.80;;;;;;4957250;28;20495;-83
2022/04/29 15:06:53;;;;;;;6.43;3.90;;;18.00;76.50;;;;;;4941000;28;20483;-81
2022/04/29 15:17:32;;;;;;;5.55;3.58;;;18.00;75.40;;;;;;4959479;28;20125;-81
2022/04/29 15:19:59;;;;;;;6.30;3.60;;;17.90;75.10;;;;;;4975072;28;20050;-82
2022/04/29 15:22:25;;;;;;;6.70;4.00;;;17.90;74.70;;;;;;4957013;28;20427;-82
2022/04/29 15:24:51;;;;;;;7.80;3.67;;;17.90;74.80;;;;;;4957402;28;20030;-82
2022/04/29 15:27:17;;;;;;;6.97;3.80;;;17.90;74.60;;;;;;4974926;28;20090;-82
2022/04/29 15:29:44;;;;;;;6.90;3.67;;;17.90;74.40;;;;;;4957458;28;20038;-82
2022/04/29 15:32:11;;;;;;;8.05;4.03;;;17.90;74.40;;;;;;4973996;28;20027;-82
2022/04/29 15:34:37;;;;;;;6.53;3.80;;;17.90;74.20;;;;;;4940864;28;20471;-82
2022/04/29 15:37:03;;;;;;;6.57;3.40;;;17.90;74.20;;;;;;4974908;28;20414;-83
2022/04/29 15:39:28;;;;;;;6.72;3.70;;;17.90;74.30;;;;;;4957413;28;20081;-87
2022/04/29 15:41:55;;;;;;;7.43;4.03;;;17.90;74.30;;;;;;4974635;28;20030;-84
2022/04/29 15:44:21;;;;;;;6.80;3.58;;;17.90;74.00;;;;;;4974389;28;20046;-81
2022/04/29 15:46:46;;;;;;;7.20;3.78;;;17.80;74.00;;;;;;4974543;28;20037;-79
2022/04/29 15:49:12;;;;;;;6.32;3.95;;;17.80;74.10;;;;;;4974356;28;20027;-79
2022/04/29 15:51:38;;;;;;;6.07;3.28;;;17.80;74.10;;;;;;4956950;28;20031;-80
2022/04/29 15:54:04;;;;;;;6.63;3.53;;;17.80;73.60;;;;;;4957379;28;20050;-84
2022/04/29 15:56:33;;;;;;;6.85;3.75;;;17.80;73.60;;;;;;4956448;28;20069;-86
2022/04/29 15:59:01;;;;;;;9.88;3.75;;;17.80;74.10;;;;;;4974008;28;20030;-85
2022/04/29 16:01:28;;;;;;;12.10;3.70;;;17.70;73.80;;;;;;4957315;28;20475;-85
2022/04/29 16:03:54;;;;;;;7.32;3.50;;;17.80;74.30;;;;;;4956622;28;20038;-86
2022/04/29 16:06:20;;;;;;;5.05;3.08;;;17.70;74.40;;;;;;4960352;28;20489;-86
2022/04/29 16:08:46;;;;;;;6.45;3.15;;;17.70;74.60;;;;;;4961060;28;20023;-84
2022/04/29 16:11:12;;;;;;;8.55;3.42;;;17.80;74.30;;;;;;4944363;28;20038;-85
2022/04/29 16:13:39;;;;;;;7.10;3.00;;;17.70;74.50;;;;;;4945460;28;20027;-85
2022/04/29 16:16:05;;;;;;;5.18;2.63;;;17.70;73.80;;;;;;4977691;28;20031;-86
2022/04/29 16:21:16;;;;;;;8.65;4.88;;;17.70;73.60;;;;;;4949383;28;20053;-84
2022/04/29 16:26:26;;;;;;;9.98;3.78;;;17.70;73.20;;;;;;4962638;28;20039;-85
2022/04/29 16:28:52;;;;;;;5.75;2.80;;;17.70;73.00;;;;;;4977719;28;20029;-86
2022/04/29 16:31:19;;;;;;;6.07;3.20;;;17.70;73.10;;;;;;4944394;28;20026;-85
2022/04/29 16:33:45;;;;;;;11.23;5.60;;;17.70;73.10;;;;;;4960779;28;20065;-85
2022/04/29 16:36:11;;;;;;;13.65;7.90;;;17.70;73.00;;;;;;4959977;28;20026;-85
2022/04/29 16:38:40;;;;;;;10.68;5.90;;;17.70;73.10;;;;;;4977324;28;20387;-85
2022/04/29 16:41:09;;;;;;;10.75;7.18;;;17.60;73.00;;;;;;4960574;28;20043;-86
2022/04/29 16:43:35;;;;;;;10.88;7.15;;;17.60;73.70;;;;;;4960232;28;20467;-86
2022/04/29 16:46:02;;;;;;;8.18;4.43;;;17.60;73.40;;;;;;4944551;28;20027;-87
2022/04/29 16:48:28;;;;;;;6.13;3.55;;;17.60;73.40;;;;;;4959955;28;20023;-88
2022/04/29 16:50:53;;;;;;;10.98;7.43;;;17.60;73.20;;;;;;4944176;28;20102;-87
2022/04/29 16:53:20;;;;;;;8.68;5.38;;;17.50;72.90;;;;;;4943707;28;20039;-87
2022/04/29 16:55:46;;;;;;;8.25;3.65;;;17.50;73.20;;;;;;4944120;28;20039;-86
2022/04/29 17:01:00;;;;;;;5.50;3.40;;;17.50;72.90;;;;;;4947693;28;20134;-86
2022/04/29 17:03:29;;;;;;;5.38;3.90;;;17.50;73.00;;;;;;4960092;28;20023;-86
2022/04/29 17:05:56;;;;;;;8.65;5.10;;;17.50;73.10;;;;;;4978356;28;20031;-86
2022/04/29 17:08:26;;;;;;;6.18;3.60;;;17.40;73.20;;;;;;4960487;28;20041;-86
2022/04/29 17:10:53;;;;;;;7.97;3.78;;;17.40;73.30;;;;;;4958984;28;20027;-85
2022/04/29 17:13:18;;;;;;;5.95;3.55;;;17.40;73.40;;;;;;4975130;28;20364;-86
2022/04/29 17:15:46;;;;;;;9.30;3.90;;;17.40;73.20;;;;;;4927272;28;20027;-85
2022/04/29 17:18:13;;;;;;;7.53;3.72;;;17.30;73.40;;;;;;4959485;28;20038;-85
2022/04/29 17:20:38;;;;;;;9.30;4.03;;;17.30;73.70;;;;;;4959425;28;20471;-84
2022/04/29 17:23:05;;;;;;;6.40;3.60;;;17.30;73.70;;;;;;4976938;28;20035;-85
2022/04/29 17:25:31;;;;;;;6.38;3.80;;;17.30;73.90;;;;;;4959398;28;20038;-87
2022/04/29 17:27:57;;;;;;;10.23;3.83;;;17.20;73.90;;;;;;4976570;28;20027;-86
2022/04/29 17:30:23;;;;;;;7.25;4.05;;;17.20;73.70;;;;;;4959323;28;20390;-86
2022/04/29 17:32:49;;;;;;;8.85;4.57;;;17.20;73.30;;;;;;4927723;28;20032;-85
2022/04/29 17:35:15;;;;;;;7.32;4.00;;;17.10;73.10;;;;;;4976673;28;20114;-85
2022/04/29 17:37:41;;;;;;;6.55;3.72;;;17.10;72.80;;;;;;4942824;28;20058;-85
2022/04/29 17:42:52;;;;;;;6.68;4.70;;;17.00;73.10;;;;;;4961512;28;20049;-86
2022/04/29 17:45:18;;;;;;;7.68;4.07;;;17.00;73.20;;;;;;4942064;28;20450;-87
2022/04/29 17:47:43;;;;;;;6.18;3.90;;;17.00;73.30;;;;;;4959258;28;20059;-86
2022/04/29 17:50:15;;;;;;;7.90;3.85;;;16.90;73.40;;;;;;4948045;28;20118;-85
2022/04/29 17:52:49;;;;;;;6.38;3.58;;;16.90;73.50;;;;;;4966258;28;20035;-85
2022/04/29 17:55:15;;;;;;;7.22;3.55;;;16.80;73.50;;;;;;4965722;28;20066;-85
2022/04/29 17:57:41;;;;;;;6.93;3.63;;;16.80;73.40;;;;;;4949480;28;20459;-86
2022/04/29 18:00:10;;;;;;;7.65;3.60;;;16.80;73.20;;;;;;4966660;28;20455;-85
2022/04/29 18:02:40;;;;;;;6.07;3.80;;;16.70;72.80;;;;;;4949867;28;20031;-85
2022/04/29 18:05:08;;;;;;;5.07;3.85;;;16.70;72.80;;;;;;4979536;28;20019;-84
2022/04/29 18:07:34;;;;;;;6.82;4.03;;;16.70;72.80;;;;;;4982687;28;20017;-86
2022/04/29 18:10:02;;;;;;;8.63;4.63;;;16.60;72.90;;;;;;4967218;28;20035;-84
2022/04/29 18:12:28;;;;;;;6.32;3.90;;;16.60;72.80;;;;;;4982524;28;20102;-86
2022/04/29 18:14:54;;;;;;;7.53;4.05;;;16.50;72.40;;;;;;4983050;28;20042;-85
2022/04/29 18:17:19;;;;;;;9.75;4.25;;;16.50;72.30;;;;;;4951139;28;20011;-83
2022/04/29 18:19:45;;;;;;;6.88;4.50;;;16.40;72.20;;;;;;4983331;28;20018;-84
2022/04/29 18:22:11;;;;;;;8.73;3.92;;;16.40;72.20;;;;;;4966583;28;20030;-85
2022/04/29 18:24:36;;;;;;;8.05;4.05;;;16.40;71.90;;;;;;4961058;28;20046;-85
2022/04/29 18:27:02;;;;;;;7.28;4.35;;;16.30;71.70;;;;;;4944547;28;20086;-85
2022/04/29 18:29:28;;;;;;;7.70;4.72;;;16.30;71.70;;;;;;4942610;28;20031;-85
2022/04/29 18:31:56;;;;;;;8.25;4.15;;;16.20;71.90;;;;;;4958497;28;20031;-85
2022/04/29 18:34:22;;;;;;;7.53;4.07;;;16.20;71.90;;;;;;4958128;28;20134;-86
2022/04/29 18:36:47;;;;;;;7.20;4.03;;;16.20;71.90;;;;;;4957917;28;20475;-86
2022/04/29 18:39:14;;;;;;;5.50;3.47;;;16.10;72.10;;;;;;4926683;28;20038;-85
2022/04/29 18:41:40;;;;;;;6.95;4.10;;;16.10;72.10;;;;;;4957968;28;20105;-86
2022/04/29 18:44:05;;;;;;;7.72;3.80;;;16.00;72.20;;;;;;4926159;28;20065;-85
2022/04/29 18:46:31;;;;;;;8.00;3.70;;;16.00;72.30;;;;;;4941687;28;20387;-85
2022/04/29 18:48:57;;;;;;;7.13;2.97;;;15.90;72.50;;;;;;4941767;28;20122;-85
2022/04/29 18:51:22;;;;;;;4.78;2.97;;;15.90;72.60;;;;;;4958117;28;20391;-85
2022/04/29 18:53:48;;;;;;;5.82;3.10;;;15.90;72.60;;;;;;4957716;28;20041;-86
2022/04/29 18:56:14;;;;;;;4.72;2.95;;;15.80;72.50;;;;;;4957703;28;20055;-85
2022/04/29 18:58:40;;;;;;;5.45;3.30;;;15.80;72.50;;;;;;4957263;28;20034;-85
2022/04/29 19:01:06;;;;;;;8.02;3.05;;;15.70;72.40;;;;;;4974951;28;20041;-85
2022/04/29 19:03:32;;;;;;;8.75;3.28;;;15.70;72.40;;;;;;4957733;28;20027;-86
2022/04/29 19:06:01;;;;;;;5.50;2.78;;;15.70;72.90;;;;;;4975321;28;20031;-85
2022/04/29 19:08:27;;;;;;;4.47;2.70;;;15.60;73.10;;;;;;4942095;28;20118;-89
2022/04/29 19:10:53;;;;;;;5.07;2.97;;;15.60;73.40;;;;;;4975027;28;20050;-85
2022/04/29 19:13:20;;;;;;;7.20;3.13;;;15.50;74.00;;;;;;4941768;28;20368;-85
2022/04/29 19:15:46;;;;;;;4.95;3.25;;;15.50;73.50;;;;;;4974949;28;20018;-85
2022/04/29 19:18:13;;;;;;;6.82;3.17;;;15.40;73.50;;;;;;4957924;28;20069;-85
2022/04/29 19:20:38;;;;;;;9.38;3.00;;;15.40;73.70;;;;;;4941925;28;20030;-85
2022/04/29 19:23:06;;;;;;;5.57;3.40;;;15.40;73.90;;;;;;4958314;28;20029;-85
2022/04/29 19:25:32;;;;;;;9.07;3.20;;;15.30;74.00;;;;;;4942549;28;20027;-94
2022/04/29 19:27:58;;;;;;;5.15;3.15;;;15.30;74.20;;;;;;4957902;28;20391;-85
2022/04/29 19:30:23;;;;;;;6.75;3.20;;;15.30;74.30;;;;;;4942024;28;20042;-85
2022/04/29 19:32:50;;;;;;;8.10;3.15;;;15.20;74.20;;;;;;4957675;28;20023;-84
2022/04/29 19:35:17;;;;;;;6.82;3.05;;;15.20;74.30;;;;;;4957617;28;20383;-85
2022/04/29 19:37:43;;;;;;;7.60;3.03;;;15.10;74.40;;;;;;4941784;28;20058;-84
2022/04/29 19:40:10;;;;;;;4.72;3.20;;;15.10;74.60;;;;;;4959224;28;20534;-85
2022/04/29 19:42:37;;;;;;;6.00;3.65;;;15.00;74.80;;;;;;4945353;28;20034;-86
2022/04/29 19:45:04;;;;;;;6.57;3.58;;;15.00;74.90;;;;;;4978618;28;20066;-85
2022/04/29 19:47:30;;;;;;;5.75;3.30;;;15.00;75.10;;;;;;4961126;28;20027;-85
2022/04/29 19:49:56;;;;;;;6.70;4.05;;;14.90;75.20;;;;;;4945115;28;20085;-85
2022/04/29 19:52:21;;;;;;;5.82;3.88;;;14.90;75.20;;;;;;4978503;28;20035;-85
2022/04/29 19:54:47;;;;;;;6.53;3.40;;;14.80;75.30;;;;;;4960817;28;20436;-85
2022/04/29 20:00:01;;;;;;;6.82;3.30;;;14.80;75.80;;;;;;4979713;28;20127;-91
2022/04/29 20:05:17;;;;;;;5.85;3.80;;;14.70;76.10;;;;;;4979600;28;20082;-91
2022/04/29 20:07:43;;;;;;;;;;;14.60;76.20;;;;;;4980005;28;20026;-91
2022/04/29 20:10:12;;;;;;;10.55;5.57;;;14.60;76.60;;;;;;4962061;28;19906;-91
2022/04/29 20:12:49;;;;;;;9.32;4.75;;;14.50;76.30;;;;;;4962034;28;20459;-93
2022/04/29 20:15:18;;;;;;;8.35;4.20;;;14.50;76.50;;;;;;4948031;28;20043;-93
2022/04/29 20:17:44;;;;;;;6.80;4.93;;;14.40;76.80;;;;;;4961874;28;20382;-92
2022/04/29 20:20:14;;;;;;;8.32;4.30;;;14.40;77.00;;;;;;4961562;28;20117;-91
2022/04/29 20:22:43;;;;;;;7.85;4.10;;;14.40;77.10;;;;;;4962339;28;20056;-91
2022/04/29 20:25:12;;;;;;;8.27;3.92;;;14.40;77.30;;;;;;4965335;28;20054;-92
2022/04/29 20:27:40;;;;;;;6.25;3.80;;;14.30;77.30;;;;;;4985093;28;20104;-93
2022/04/29 20:30:07;;;;;;;6.65;3.97;;;14.30;77.40;;;;;;4984868;28;20031;-92
2022/04/29 20:32:32;;;;;;;8.00;4.20;;;14.30;77.60;;;;;;4968755;28;20017;-84
2022/04/29 20:35:00;;;;;;;8.15;4.40;;;14.20;77.70;;;;;;4969058;28;20031;-86
2022/04/29 20:37:26;;;;;;;6.60;3.90;;;14.20;77.90;;;;;;5001222;28;20043;-85
2022/04/29 20:45:19;;;;;;;9.73;4.00;;;14.10;78.20;;;;;;4968896;28;20049;-86
2022/04/29 20:47:45;;;;;;;7.60;4.15;;;14.10;78.30;;;;;;4962114;28;20031;-86
2022/04/29 20:50:11;;;;;;;11.70;4.55;;;14.00;78.40;;;;;;4962120;28;20102;-85
2022/04/29 20:52:36;;;;;;;8.02;4.18;;;14.00;78.40;;;;;;4929706;28;20096;-83
2022/04/29 20:55:03;;;;;;;6.85;3.83;;;14.00;78.50;;;;;;4946666;28;20398;-82
2022/04/29 20:57:29;;;;;;;9.35;4.43;;;13.90;78.60;;;;;;4979091;28;20368;-85
2022/04/29 20:59:55;;;;;;;7.65;4.38;;;13.90;78.80;;;;;;4980262;28;20030;-85
2022/04/29 21:02:23;;;;;;;8.73;4.50;;;13.90;78.80;;;;;;4945156;28;20027;-85
2022/04/29 21:04:48;;;;;;;8.52;4.35;;;13.80;79.10;;;;;;4943753;28;20490;-85
2022/04/29 21:07:14;;;;;;;7.07;4.32;;;13.80;79.20;;;;;;4959521;28;20031;-85
2022/04/29 21:09:41;;;;;;;7.55;3.63;;;13.80;79.30;;;;;;4927408;28;20027;-86
2022/04/29 21:12:07;;;;;;;7.57;4.32;;;13.70;79.30;;;;;;4943965;28;20027;-86
2022/04/29 21:14:34;;;;;;;7.20;4.22;;;13.70;79.40;;;;;;4976810;28;20085;-86
2022/04/29 21:17:02;;;;;;;7.65;3.50;;;13.70;79.60;;;;;;4959185;28;20043;-86
2022/04/29 21:19:28;;;;;;;7.13;3.88;;;13.70;79.60;;;;;;4943400;28;20467;-86
2022/04/29 21:21:54;;;;;;;6.38;3.70;;;13.60;79.60;;;;;;4943167;28;21443;-86
2022/04/29 21:24:19;;;;;;;6.10;3.88;;;13.60;79.70;;;;;;4941141;28;20031;-86
2022/04/29 21:26:45;;;;;;;7.63;3.78;;;13.60;79.80;;;;;;4959105;28;20023;-86
2022/04/29 21:31:55;;;;;;;7.65;3.95;;;13.50;79.70;;;;;;4943030;29;20436;-87
2022/04/29 21:34:22;;;;;;;6.15;3.33;;;13.50;79.70;;;;;;4973483;28;20023;-88
2022/04/29 21:36:48;;;;;;;8.07;4.07;;;13.50;80.40;;;;;;4927752;28;20027;-86
2022/04/29 21:39:14;;;;;;;5.85;2.92;;;13.40;79.70;;;;;;4959025;28;20360;-87
2022/04/29 21:41:40;;;;;;;5.93;2.97;;;13.40;79.70;;;;;;4959327;28;20356;-89
2022/04/29 21:44:06;;;;;;;4.97;2.72;;;13.30;79.70;;;;;;4958773;28;20046;-87
2022/04/29 21:46:32;;;;;;;8.23;3.30;;;13.30;79.80;;;;;;4927622;28;20034;-88
2022/04/29 21:48:57;;;;;;;6.03;2.70;;;13.30;79.80;;;;;;4959116;28;20018;-88
2022/04/29 21:51:23;;;;;;;6.25;3.20;;;13.20;79.80;;;;;;4943415;28;20470;-87
2022/04/29 21:53:49;;;;;;;6.80;3.10;;;13.20;79.70;;;;;;4942536;28;20443;-86
2022/04/29 21:56:14;;;;;;;5.88;2.85;;;13.20;79.70;;;;;;4958429;28;20055;-85
2022/04/29 21:58:40;;;;;;;6.22;3.00;;;13.10;79.70;;;;;;4958630;28;20039;-86
2022/04/29 22:01:08;;;;;;;5.60;2.83;;;13.10;79.80;;;;;;4975733;28;20419;-86
2022/04/29 22:03:35;;;;;;;12.43;3.13;;;13.10;79.80;;;;;;4957972;28;20118;-86
2022/04/29 22:06:05;;;;;;;4.65;2.78;;;13.10;80.00;;;;;;4942603;28;20090;-86
2022/04/29 22:08:31;;;;;;;7.23;3.03;;;13.00;80.10;;;;;;4976080;28;20030;-86
2022/04/29 22:10:56;;;;;;;6.75;2.60;;;13.00;80.20;;;;;;4958925;28;20106;-86
2022/04/29 22:13:23;;;;;;;7.18;2.83;;;13.00;80.30;;;;;;4958862;28;20495;-85
2022/04/29 22:15:49;;;;;;;5.50;2.70;;;12.90;80.50;;;;;;4975343;28;20022;-88
2022/04/29 22:18:15;;;;;;;5.78;2.60;;;12.90;80.50;;;;;;4942728;28;20482;-86
2022/04/29 22:20:40;;;;;;;3.95;2.20;;;12.90;80.50;;;;;;4942559;28;20034;-86
2022/04/29 22:23:07;;;;;;;5.90;2.70;;;12.90;80.50;;;;;;4958468;28;20062;-86
2022/04/29 22:25:33;;;;;;;5.78;2.75;;;12.80;80.70;;;;;;4958377;28;20038;-86
2022/04/29 22:27:59;;;;;;;5.90;2.67;;;12.80;80.90;;;;;;4958136;28;20386;-86
2022/04/29 22:30:25;;;;;;;5.97;2.47;;;12.80;81.20;;;;;;4958204;28;20063;-86
2022/04/29 22:32:53;;;;;;;4.90;2.30;;;12.70;81.20;;;;;;4958271;28;20030;-87
2022/04/29 22:35:19;;;;;;;6.57;2.50;;;12.70;81.20;;;;;;4958379;28;20038;-84
2022/04/29 22:37:45;;;;;;;4.75;2.65;;;12.70;81.30;;;;;;4958307;28;20033;-84
2022/04/29 22:40:12;;;;;;;6.18;2.78;;;12.70;81.40;;;;;;4957830;28;20332;-84
2022/04/29 22:42:47;;;;;;;5.50;2.70;;;12.60;81.60;;;;;;4957911;28;20055;-84
2022/04/29 22:45:18;;;;;;;5.93;2.45;;;12.60;81.80;;;;;;4957780;28;20034;-83
2022/04/29 22:47:44;;;;;;;6.18;2.78;;;12.60;82.00;;;;;;4957868;28;20121;-84
2022/04/29 22:50:09;;;;;;;6.95;3.00;;;12.60;82.20;;;;;;4957801;28;20117;-84
2022/04/29 22:52:46;;;;;;;7.60;2.75;;;12.50;82.20;;;;;;4957801;28;20026;-84
2022/04/29 22:55:13;;;;;;;8.23;2.65;;;12.50;82.50;;;;;;4957233;28;20055;-84
2022/04/29 22:57:42;;;;;;;6.28;2.67;;;12.50;82.50;;;;;;4941420;28;20027;-84
2022/04/29 23:00:10;;;;;;;4.35;2.28;;;12.40;82.50;;;;;;4974793;28;20023;-84
2022/04/29 23:02:36;;;;;;;6.40;2.50;;;12.40;82.70;;;;;;4941414;28;20082;-84
2022/04/29 23:05:04;;;;;;;9.45;2.75;;;12.40;82.80;;;;;;4941177;28;20038;-84
2022/04/29 23:07:30;;;;;;;4.50;2.67;;;12.30;82.90;;;;;;4957539;28;20019;-84
2022/04/29 23:09:56;;;;;;;4.05;2.30;;;12.30;83.20;;;;;;4974775;28;20034;-84
2022/04/29 23:12:22;;;;;;;5.68;2.55;;;12.30;83.30;;;;;;4957732;28;20035;-84
2022/04/29 23:14:50;;;;;;;6.65;2.50;;;12.20;83.40;;;;;;4957709;28;20023;-84
2022/04/29 23:20:00;;;;;;;9.20;2.78;;;12.20;83.70;;;;;;4960144;28;20097;-84
2022/04/29 23:22:26;;;;;;;4.72;2.55;;;12.10;83.70;;;;;;4941502;28;20031;-84
2022/04/29 23:24:51;;;;;;;7.30;3.28;;;12.10;84.40;;;;;;4974826;28;20038;-84
2022/04/29 23:27:17;;;;;;;7.82;2.70;;;12.10;84.00;;;;;;4941154;28;20035;-84
2022/04/29 23:29:46;;;;;;;4.40;2.30;;;12.00;84.00;;;;;;4957494;28;20038;-84
2022/04/29 23:32:13;;;;;;;6.18;2.40;;;12.00;84.10;;;;;;4941728;28;20538;-84
2022/04/29 23:34:40;;;;;;;5.53;2.78;;;12.00;84.30;;;;;;4974450;28;20040;-84